Time;durP1;ratioP1;P1;durP2;ratioP2;P2;SDS_P1;SDS_P2;PMS_P1;PMS_P2;Temp;Humidity;BMP_temperature;BMP_pressure;BME280_temperature;BME280_humidity;BME280_pressure;Samples;Min_cycle;Max_cycle;Signal;HPM_P1;HPM_P2
2021/11/27 00:00:49;;;;;;;7.00;1.40;;;6.80;99.90;;;;;;5084895;28;20458;-68
2021/11/27 00:03:15;;;;;;;7.50;1.48;;;6.80;99.90;;;;;;5087766;28;20487;-69
2021/11/27 00:05:42;;;;;;;6.50;1.30;;;6.80;99.90;;;;;;5102934;28;20930;-69
2021/11/27 00:08:09;;;;;;;8.00;1.60;;;6.80;99.90;;;;;;5085570;28;20419;-68
2021/11/27 00:10:37;;;;;;;6.93;1.63;;;6.90;99.90;;;;;;5084351;28;20448;-68
2021/11/27 00:13:04;;;;;;;5.25;1.20;;;6.90;99.90;;;;;;5103770;28;20413;-68
2021/11/27 00:15:31;;;;;;;5.07;1.27;;;6.90;99.90;;;;;;5104779;28;20520;-69
2021/11/27 00:17:58;;;;;;;6.37;1.27;;;6.90;99.90;;;;;;5104807;28;20826;-68
2021/11/27 00:20:31;;;;;;;6.57;1.40;;;6.90;99.90;;;;;;5102790;28;20826;-69
2021/11/27 00:22:57;;;;;;;7.63;1.50;;;6.90;99.90;;;;;;5083995;28;20521;-69
2021/11/27 00:25:22;;;;;;;7.30;1.70;;;6.90;99.90;;;;;;5100366;28;20491;-69
2021/11/27 00:27:49;;;;;;;7.93;1.50;;;7.00;99.90;;;;;;5080036;28;20412;-69
2021/11/27 00:30:19;;;;;;;6.88;1.70;;;7.00;99.90;;;;;;5073822;28;20422;-69
2021/11/27 00:32:45;;;;;;;7.47;1.45;;;7.00;99.90;;;;;;5100584;28;20413;-69
2021/11/27 00:35:10;;;;;;;6.17;1.73;;;7.00;99.90;;;;;;5082922;28;20948;-69
2021/11/27 00:37:37;;;;;;;8.25;1.85;;;7.00;99.90;;;;;;5102320;28;20439;-68
2021/11/27 00:40:06;;;;;;;5.90;1.50;;;7.00;99.90;;;;;;5087694;28;20408;-69
2021/11/27 00:42:32;;;;;;;9.38;1.75;;;7.00;99.90;;;;;;5063724;28;20418;-68
2021/11/27 00:44:58;;;;;;;7.95;1.65;;;6.90;99.90;;;;;;5068862;28;20507;-69
2021/11/27 00:47:23;;;;;;;8.37;2.00;;;6.90;99.90;;;;;;5066723;28;20502;-68
2021/11/27 00:49:53;;;;;;;9.75;1.83;;;6.90;99.90;;;;;;5078247;28;20411;-70
2021/11/27 00:52:22;;;;;;;8.23;1.80;;;6.90;99.90;;;;;;5081969;28;20436;-68
2021/11/27 00:54:48;;;;;;;6.03;1.52;;;6.90;99.90;;;;;;5103327;28;20404;-67
2021/11/27 00:57:15;;;;;;;5.82;1.60;;;6.80;99.90;;;;;;5102672;28;20909;-68
2021/11/27 00:59:41;;;;;;;6.80;1.63;;;6.80;99.90;;;;;;5101901;28;20449;-69
2021/11/27 01:02:07;;;;;;;5.32;1.40;;;6.70;99.90;;;;;;5108474;27;20495;-68
2021/11/27 01:04:33;;;;;;;5.72;1.60;;;6.70;99.90;;;;;;5074202;28;20451;-69
2021/11/27 01:06:58;;;;;;;6.83;1.40;;;6.70;99.90;;;;;;5085378;28;20414;-69
2021/11/27 01:09:24;;;;;;;8.43;1.50;;;6.70;99.90;;;;;;5102620;28;20426;-69
2021/11/27 01:11:53;;;;;;;5.83;1.60;;;6.70;99.90;;;;;;5068394;28;20437;-69
2021/11/27 01:14:22;;;;;;;6.60;1.58;;;6.70;99.90;;;;;;5102576;28;20411;-69
2021/11/27 01:16:53;;;;;;;7.18;1.42;;;6.60;99.90;;;;;;5083097;28;20469;-68
2021/11/27 01:19:19;;;;;;;7.03;1.40;;;6.70;99.90;;;;;;5085603;28;20884;-68
2021/11/27 01:21:49;;;;;;;10.27;1.50;;;6.60;99.90;;;;;;5083088;28;20994;-68
2021/11/27 01:24:16;;;;;;;6.57;1.60;;;6.70;99.90;;;;;;5085065;28;20423;-69
2021/11/27 01:26:42;;;;;;;8.05;1.58;;;6.60;99.90;;;;;;5100941;28;20444;-68
2021/11/27 01:29:08;;;;;;;7.32;1.60;;;6.60;99.90;;;;;;5086119;28;20450;-69
2021/11/27 01:31:35;;;;;;;13.88;1.70;;;6.60;99.90;;;;;;5098274;28;20798;-68
2021/11/27 01:34:04;;;;;;;9.77;1.70;;;6.60;99.90;;;;;;5104279;28;20400;-68
2021/11/27 01:36:30;;;;;;;9.90;1.70;;;6.50;99.90;;;;;;5103392;28;20400;-68
2021/11/27 01:38:56;;;;;;;8.35;1.50;;;6.50;99.90;;;;;;5100716;28;20412;-68
2021/11/27 01:41:22;;;;;;;7.15;1.70;;;6.50;99.90;;;;;;5093017;28;20834;-68
2021/11/27 01:43:48;;;;;;;10.43;1.60;;;6.50;99.90;;;;;;5086173;28;20415;-67
2021/11/27 01:46:14;;;;;;;10.87;1.70;;;6.50;99.90;;;;;;5065946;28;20405;-67
2021/11/27 01:48:40;;;;;;;7.88;1.60;;;6.50;99.90;;;;;;5076372;28;20847;-67
2021/11/27 01:51:15;;;;;;;6.35;1.50;;;6.40;99.90;;;;;;5067251;28;20486;-67
2021/11/27 01:53:44;;;;;;;7.55;1.45;;;6.40;99.90;;;;;;5086329;28;20447;-67
2021/11/27 01:56:14;;;;;;;10.93;1.50;;;6.40;99.90;;;;;;5086415;28;20468;-68
2021/11/27 01:58:40;;;;;;;7.00;1.30;;;6.40;99.90;;;;;;5103649;28;20467;-67
2021/11/27 02:01:16;;;;;;;5.53;1.27;;;6.40;99.90;;;;;;5083406;28;20442;-67
2021/11/27 02:03:43;;;;;;;8.60;1.50;;;6.50;99.90;;;;;;5089225;28;21205;-68
2021/11/27 02:06:18;;;;;;;8.93;1.75;;;6.50;99.90;;;;;;5078834;28;20420;-68
2021/11/27 02:08:50;;;;;;;8.50;1.63;;;6.50;99.90;;;;;;5106322;27;20743;-67
2021/11/27 02:11:25;;;;;;;9.20;1.80;;;6.50;99.90;;;;;;5087947;28;20420;-68
2021/11/27 02:13:52;;;;;;;6.68;1.70;;;6.40;99.90;;;;;;5105391;27;20413;-68
2021/11/27 02:16:18;;;;;;;9.02;1.70;;;6.40;99.90;;;;;;5087134;28;20438;-67
2021/11/27 02:18:44;;;;;;;7.18;1.58;;;6.40;99.90;;;;;;5099140;28;20397;-68
2021/11/27 02:21:15;;;;;;;8.90;1.40;;;6.30;99.90;;;;;;5106079;28;20481;-69
2021/11/27 02:23:41;;;;;;;8.52;1.58;;;6.30;99.90;;;;;;5089286;28;20384;-67
2021/11/27 02:26:10;;;;;;;7.63;1.48;;;6.30;99.90;;;;;;5106967;28;20455;-69
2021/11/27 02:28:49;;;;;;;7.88;1.60;;;6.30;99.90;;;;;;5085702;28;20533;-68
2021/11/27 02:31:15;;;;;;;6.00;1.40;;;6.30;99.90;;;;;;5087022;28;20441;-67
2021/11/27 02:33:41;;;;;;;8.32;1.80;;;6.30;99.90;;;;;;5115040;27;20405;-69
2021/11/27 02:36:06;;;;;;;6.18;1.45;;;6.30;99.90;;;;;;5107912;28;20409;-67
2021/11/27 02:38:33;;;;;;;8.10;1.67;;;6.30;99.90;;;;;;5089205;28;20408;-68
2021/11/27 02:40:59;;;;;;;7.13;1.27;;;6.30;99.90;;;;;;5090892;28;20424;-68
2021/11/27 02:43:26;;;;;;;7.97;1.40;;;6.30;99.90;;;;;;5085969;28;20417;-67
2021/11/27 02:45:52;;;;;;;6.73;1.10;;;6.30;99.90;;;;;;5086103;28;20460;-67
2021/11/27 02:48:17;;;;;;;4.95;1.00;;;6.30;99.90;;;;;;5087790;28;20401;-68
2021/11/27 02:50:43;;;;;;;6.18;1.17;;;6.30;99.90;;;;;;5085988;28;20533;-67
2021/11/27 02:53:09;;;;;;;6.88;1.25;;;6.20;99.90;;;;;;5086051;28;20441;-68
2021/11/27 02:55:35;;;;;;;5.83;1.10;;;6.20;99.90;;;;;;5086687;28;20445;-70
2021/11/27 02:58:02;;;;;;;7.28;1.40;;;6.10;99.90;;;;;;5085712;28;20421;-68
2021/11/27 03:00:28;;;;;;;6.55;1.20;;;6.20;99.90;;;;;;5086835;28;20417;-68
2021/11/27 03:02:54;;;;;;;2.37;0.80;;;6.20;99.90;;;;;;5085336;28;20463;-67
2021/11/27 03:05:21;;;;;;;3.85;0.90;;;6.10;99.90;;;;;;5086494;28;20424;-68
2021/11/27 03:07:49;;;;;;;5.93;1.10;;;6.10;99.90;;;;;;5067801;28;20404;-68
2021/11/27 03:10:17;;;;;;;6.20;1.05;;;6.10;99.90;;;;;;5087605;28;20417;-68
2021/11/27 03:12:43;;;;;;;4.10;1.20;;;6.10;99.90;;;;;;5082688;28;20770;-67
2021/11/27 03:15:12;;;;;;;3.63;1.10;;;6.10;99.90;;;;;;5085408;28;20420;-69
2021/11/27 03:17:39;;;;;;;2.30;0.75;;;6.10;99.90;;;;;;5085661;28;20454;-68
2021/11/27 03:20:08;;;;;;;3.13;0.70;;;6.10;99.90;;;;;;5085567;28;20917;-69
2021/11/27 03:22:34;;;;;;;3.10;0.73;;;6.10;99.90;;;;;;5084585;28;20762;-68
2021/11/27 03:24:59;;;;;;;4.70;0.90;;;6.20;99.90;;;;;;5083544;28;20409;-68
2021/11/27 03:27:25;;;;;;;2.10;0.80;;;6.20;99.90;;;;;;5084964;28;20435;-68
2021/11/27 03:29:51;;;;;;;4.07;0.90;;;6.30;99.90;;;;;;5085427;28;20417;-70
2021/11/27 03:32:18;;;;;;;4.57;1.17;;;6.30;99.90;;;;;;5083628;28;20501;-68
2021/11/27 03:34:54;;;;;;;3.73;1.07;;;6.40;99.90;;;;;;5085062;28;20418;-68
2021/11/27 03:37:22;;;;;;;3.93;1.07;;;6.50;99.90;;;;;;5082537;28;20913;-68
2021/11/27 03:39:49;;;;;;;5.13;1.10;;;6.50;99.90;;;;;;5085207;28;20953;-67
2021/11/27 03:42:16;;;;;;;5.10;1.10;;;6.60;99.90;;;;;;5084083;28;20410;-69
2021/11/27 03:44:44;;;;;;;3.65;0.88;;;6.60;99.90;;;;;;5084075;28;20414;-68
2021/11/27 03:47:10;;;;;;;3.60;0.90;;;6.60;99.90;;;;;;5084824;28;20745;-68
2021/11/27 03:49:36;;;;;;;3.63;0.75;;;6.60;99.90;;;;;;5086685;28;20405;-68
2021/11/27 03:52:03;;;;;;;2.67;1.00;;;6.60;99.90;;;;;;5096282;28;20923;-68
2021/11/27 03:54:34;;;;;;;3.60;0.93;;;6.60;99.90;;;;;;5091069;28;20402;-67
2021/11/27 03:56:59;;;;;;;4.93;1.10;;;6.60;99.90;;;;;;5080838;28;20967;-68
2021/11/27 03:59:27;;;;;;;5.27;1.20;;;6.60;99.90;;;;;;5101640;28;20414;-68
2021/11/27 04:01:53;;;;;;;3.20;0.93;;;6.60;99.90;;;;;;5084042;28;20420;-68
2021/11/27 04:04:20;;;;;;;4.25;1.00;;;6.60;99.90;;;;;;5067631;28;20423;-68
2021/11/27 04:06:46;;;;;;;4.50;0.93;;;6.60;99.90;;;;;;5083630;28;20914;-68
2021/11/27 04:09:13;;;;;;;1.88;1.00;;;6.60;99.90;;;;;;5084263;28;20416;-68
2021/11/27 04:11:41;;;;;;;2.88;1.00;;;6.60;99.90;;;;;;5082002;28;20422;-67
2021/11/27 04:14:16;;;;;;;4.80;1.10;;;6.60;99.90;;;;;;5084034;28;20512;-67
2021/11/27 04:16:50;;;;;;;4.75;1.15;;;6.60;99.90;;;;;;5081652;28;20471;-69
2021/11/27 04:19:15;;;;;;;4.63;1.30;;;6.60;99.90;;;;;;5084543;28;20406;-67
2021/11/27 04:21:41;;;;;;;6.27;1.40;;;6.60;99.90;;;;;;5084391;28;20459;-69
2021/11/27 04:24:07;;;;;;;3.25;1.35;;;6.50;99.90;;;;;;5085852;28;20416;-67
2021/11/27 04:26:32;;;;;;;4.47;1.43;;;6.50;99.90;;;;;;5085273;28;20503;-68
2021/11/27 04:28:58;;;;;;;4.40;1.33;;;6.50;99.90;;;;;;5081799;28;20415;-67
2021/11/27 04:31:25;;;;;;;5.68;1.42;;;6.50;99.90;;;;;;5082835;28;20513;-69
2021/11/27 04:33:53;;;;;;;5.38;1.50;;;6.50;99.90;;;;;;5081552;28;20911;-70
2021/11/27 04:36:20;;;;;;;4.85;1.50;;;6.60;99.90;;;;;;5082586;28;20412;-69
2021/11/27 04:38:48;;;;;;;4.53;1.58;;;6.60;99.90;;;;;;5084730;28;20436;-70
2021/11/27 04:41:13;;;;;;;4.90;1.40;;;6.60;99.90;;;;;;5096934;28;20435;-68
2021/11/27 04:43:39;;;;;;;4.55;1.77;;;6.60;99.90;;;;;;5084278;28;20432;-70
2021/11/27 04:46:05;;;;;;;5.50;1.70;;;6.60;99.90;;;;;;5085052;28;20397;-68
2021/11/27 04:48:31;;;;;;;8.57;1.25;;;6.60;99.90;;;;;;5081460;28;21548;-68
2021/11/27 04:50:57;;;;;;;8.02;1.33;;;6.60;99.90;;;;;;5082883;28;20804;-69
2021/11/27 04:53:23;;;;;;;4.03;1.10;;;6.50;99.90;;;;;;5082486;28;20457;-69
2021/11/27 04:55:50;;;;;;;3.10;0.90;;;6.50;99.90;;;;;;5082286;28;20451;-70
2021/11/27 04:58:18;;;;;;;4.15;1.20;;;6.50;99.90;;;;;;5084891;28;20463;-70
2021/11/27 05:00:48;;;;;;;3.35;1.23;;;6.40;99.90;;;;;;5084562;28;20413;-70
2021/11/27 05:03:19;;;;;;;3.35;1.10;;;6.40;99.90;;;;;;5083645;28;20437;-70
2021/11/27 05:05:45;;;;;;;3.88;1.20;;;6.40;99.90;;;;;;5083888;28;20766;-71
2021/11/27 05:08:10;;;;;;;4.57;1.30;;;6.30;99.90;;;;;;5083557;28;20987;-70
2021/11/27 05:10:37;;;;;;;2.63;1.10;;;6.30;99.90;;;;;;5083258;28;20820;-69
2021/11/27 05:13:04;;;;;;;6.50;1.20;;;6.40;99.90;;;;;;5083561;28;20433;-69
2021/11/27 05:15:32;;;;;;;5.50;1.20;;;6.40;99.90;;;;;;5079784;28;20401;-70
2021/11/27 05:18:02;;;;;;;4.40;1.40;;;6.40;99.90;;;;;;5083818;28;20950;-69
2021/11/27 05:20:41;;;;;;;6.33;1.30;;;6.50;99.90;;;;;;5082557;28;21087;-68
2021/11/27 05:23:07;;;;;;;4.25;1.10;;;6.50;99.90;;;;;;5081882;28;20492;-69
2021/11/27 05:25:34;;;;;;;6.82;1.23;;;6.50;99.90;;;;;;5083132;28;20491;-70
2021/11/27 05:28:19;;;;;;;11.70;1.65;;;6.50;99.90;;;;;;5083797;28;21183;-69
2021/11/27 05:30:57;;;;;;;10.50;1.60;;;6.50;99.90;;;;;;5066517;28;21044;-71
2021/11/27 05:33:58;;;;;;;7.70;1.73;;;6.50;99.90;;;;;;5081334;28;20495;-70
2021/11/27 05:36:21;;;;;;;3.58;1.48;;;6.50;99.90;;;;;;5079933;28;20426;-71
2021/11/27 05:38:48;;;;;;;7.00;1.70;;;6.50;99.90;;;;;;5083125;28;20406;-70
2021/11/27 05:41:15;;;;;;;9.50;1.80;;;6.40;99.90;;;;;;5082366;28;20421;-71
2021/11/27 05:43:42;;;;;;;6.47;1.80;;;6.40;99.90;;;;;;5089754;28;20453;-70
2021/11/27 05:46:09;;;;;;;4.00;1.53;;;6.40;99.90;;;;;;5075495;28;20490;-70
2021/11/27 05:48:35;;;;;;;7.18;1.85;;;6.50;99.90;;;;;;5083073;28;20411;-69
2021/11/27 05:51:21;;;;;;;5.97;1.70;;;6.40;99.90;;;;;;5070052;28;20444;-68
2021/11/27 05:53:47;;;;;;;5.93;1.83;;;6.40;99.90;;;;;;5102297;28;20753;-70
2021/11/27 05:56:13;;;;;;;11.32;2.08;;;6.40;99.90;;;;;;5100532;28;20447;-69
2021/11/27 05:58:38;;;;;;;11.23;1.97;;;6.40;99.90;;;;;;5104403;28;20456;-69
2021/11/27 06:01:06;;;;;;;6.88;1.70;;;6.40;99.90;;;;;;5100400;28;20422;-69
2021/11/27 06:03:32;;;;;;;3.70;1.50;;;6.40;99.90;;;;;;5095644;28;20443;-69
2021/11/27 06:05:59;;;;;;;5.27;1.70;;;6.40;99.90;;;;;;5098685;28;20409;-68
2021/11/27 06:08:24;;;;;;;6.90;1.50;;;6.30;99.90;;;;;;5103138;28;20469;-69
2021/11/27 06:10:51;;;;;;;5.47;1.90;;;6.30;99.90;;;;;;5082201;28;20428;-69
2021/11/27 06:13:16;;;;;;;5.28;2.00;;;6.30;99.90;;;;;;5097867;28;20417;-70
2021/11/27 06:15:42;;;;;;;8.38;2.97;;;6.40;99.90;;;;;;5096139;28;20869;-69
2021/11/27 06:18:08;;;;;;;5.17;1.93;;;6.40;99.90;;;;;;5099725;28;20414;-69
2021/11/27 06:20:34;;;;;;;6.40;2.20;;;6.50;99.90;;;;;;5099547;28;20408;-69
2021/11/27 06:22:59;;;;;;;6.82;2.10;;;6.50;99.90;;;;;;5103976;28;20416;-70
2021/11/27 06:25:26;;;;;;;5.67;2.00;;;6.60;99.90;;;;;;5099618;28;20440;-69
2021/11/27 06:27:54;;;;;;;5.80;2.00;;;6.60;99.90;;;;;;5076612;28;20414;-69
2021/11/27 06:30:21;;;;;;;3.85;1.67;;;6.60;99.90;;;;;;5097611;28;20871;-70
2021/11/27 06:32:46;;;;;;;10.35;2.30;;;6.60;99.90;;;;;;5100529;28;20408;-67
2021/11/27 06:35:12;;;;;;;10.13;2.20;;;6.60;99.90;;;;;;5103751;28;20791;-69
2021/11/27 06:37:38;;;;;;;6.35;2.17;;;6.60;99.90;;;;;;5102801;28;20415;-70
2021/11/27 06:40:04;;;;;;;7.77;2.10;;;6.60;99.90;;;;;;5094087;28;20445;-69
2021/11/27 06:42:30;;;;;;;8.82;2.30;;;6.60;99.90;;;;;;5084913;28;20408;-69
2021/11/27 06:44:59;;;;;;;12.52;2.13;;;6.50;99.90;;;;;;5102898;28;20561;-69
2021/11/27 06:47:29;;;;;;;7.40;2.03;;;6.50;99.90;;;;;;5086504;28;20741;-71
2021/11/27 06:49:55;;;;;;;7.18;1.50;;;6.40;99.90;;;;;;5087809;28;20412;-70
2021/11/27 06:52:21;;;;;;;2.95;1.23;;;6.40;99.90;;;;;;5105174;28;20470;-68
2021/11/27 06:54:47;;;;;;;9.52;1.55;;;6.30;99.90;;;;;;5106001;28;20420;-70
2021/11/27 06:57:13;;;;;;;7.57;1.50;;;6.30;99.90;;;;;;5104078;28;20445;-70
2021/11/27 06:59:40;;;;;;;9.55;1.50;;;6.20;99.90;;;;;;5088496;28;20441;-69
2021/11/27 07:02:28;;;;;;;3.92;1.40;;;6.20;99.90;;;;;;5086537;28;20412;-70
2021/11/27 07:05:17;;;;;;;3.13;1.50;;;6.10;99.90;;;;;;5069680;28;20441;-70
2021/11/27 07:07:57;;;;;;;3.25;1.70;;;6.10;99.90;;;;;;5083030;28;20396;-71
2021/11/27 07:10:26;;;;;;;6.60;1.67;;;6.10;99.90;;;;;;5104181;28;20423;-71
2021/11/27 07:13:01;;;;;;;6.10;1.80;;;6.00;99.90;;;;;;5088453;28;20416;-70
2021/11/27 07:15:28;;;;;;;6.60;1.90;;;6.00;99.90;;;;;;5089232;28;20416;-71
2021/11/27 07:17:54;;;;;;;8.27;1.55;;;6.00;99.90;;;;;;5101727;28;20410;-69
2021/11/27 07:20:20;;;;;;;6.33;1.63;;;5.90;99.90;;;;;;5104691;28;20435;-70
2021/11/27 07:22:46;;;;;;;4.03;1.50;;;5.90;99.90;;;;;;5087682;28;20443;-69
2021/11/27 07:25:12;;;;;;;6.40;1.70;;;5.90;99.90;;;;;;5087827;28;20845;-69
2021/11/27 07:28:00;;;;;;;8.77;1.80;;;5.90;99.90;;;;;;5099664;28;20434;-69
2021/11/27 07:30:26;;;;;;;5.60;1.73;;;5.90;99.90;;;;;;5089728;28;20927;-70
2021/11/27 07:32:54;;;;;;;;;;;5.80;99.90;;;;;;5072995;28;20111;-70
2021/11/27 07:35:20;;;;;;;;;;;5.50;99.90;;;;;;5105982;28;19998;-69
2021/11/27 07:37:45;;;;;;;;;;;5.20;99.90;;;;;;5104837;28;20040;-70
2021/11/27 07:40:11;;;;;;;;;;;5.00;99.90;;;;;;5090175;28;19919;-70
2021/11/27 07:42:38;;;;;;;;;;;4.80;99.90;;;;;;5089253;28;19961;-68
2021/11/27 07:45:23;;;;;;;5.35;1.13;;;4.70;99.90;;;;;;5093562;28;20597;-69
2021/11/27 07:48:15;;;;;;;7.50;1.52;;;4.60;99.90;;;;;;5090218;28;20204;-69
2021/11/27 07:51:01;;;;;;;5.22;1.40;;;4.60;99.90;;;;;;5097963;28;20653;-69
2021/11/27 07:53:35;;;;;;;6.65;1.70;;;4.60;99.90;;;;;;5088723;28;20177;-69
2021/11/27 07:56:02;;;;;;;5.68;1.27;;;4.50;99.90;;;;;;5106501;28;20615;-69
2021/11/27 07:58:28;;;;;;;3.97;1.33;;;4.50;99.90;;;;;;5101724;28;20249;-69
2021/11/27 08:00:54;;;;;;;6.13;1.33;;;4.50;99.90;;;;;;5107301;28;20218;-69
2021/11/27 08:03:19;;;;;;;3.42;1.27;;;4.40;99.90;;;;;;5105792;28;20189;-70
2021/11/27 08:05:45;;;;;;;7.18;2.00;;;4.30;99.90;;;;;;5105477;28;20716;-69
2021/11/27 08:08:11;;;;;;;8.25;1.63;;;4.30;99.90;;;;;;5086042;28;20181;-68
2021/11/27 08:10:36;;;;;;;7.00;1.58;;;4.30;99.90;;;;;;5105710;28;20185;-68
2021/11/27 08:13:02;;;;;;;5.78;1.48;;;4.30;99.90;;;;;;5105456;28;20318;-69
2021/11/27 08:15:28;;;;;;;4.97;1.27;;;4.30;99.90;;;;;;5104710;28;20189;-68
2021/11/27 08:17:53;;;;;;;7.63;1.50;;;4.20;99.90;;;;;;5102615;28;20192;-70
2021/11/27 08:20:19;;;;;;;2.88;1.13;;;4.20;99.90;;;;;;5105776;28;20181;-70
2021/11/27 08:22:46;;;;;;;4.75;1.50;;;4.20;99.90;;;;;;5105269;28;20177;-68
2021/11/27 08:25:12;;;;;;;7.90;1.25;;;4.20;99.90;;;;;;5104246;28;20213;-68
2021/11/27 08:27:38;;;;;;;3.75;1.20;;;4.20;99.90;;;;;;5102998;28;20570;-69
2021/11/27 08:30:10;;;;;;;4.22;1.45;;;4.20;99.90;;;;;;5102736;28;20283;-70
2021/11/27 08:32:36;;;;;;;12.73;1.73;;;4.20;99.90;;;;;;5103408;28;20181;-70
2021/11/27 08:35:02;;;;;;;4.87;2.17;;;4.20;99.90;;;;;;5104480;28;20511;-70
2021/11/27 08:37:31;;;;;;;8.60;2.47;;;4.50;99.90;;;;;;5086335;28;20427;-70
2021/11/27 08:39:57;;;;;;;9.18;2.15;;;4.80;99.90;;;;;;5102242;28;21016;-71
2021/11/27 08:42:23;;;;;;;5.97;2.05;;;4.60;99.90;;;;;;5104962;28;20216;-70
2021/11/27 08:44:49;;;;;;;5.07;2.38;;;4.50;99.90;;;;;;5106127;28;20220;-69
2021/11/27 08:47:16;;;;;;;5.65;2.70;;;4.40;99.90;;;;;;5103590;28;20668;-70
2021/11/27 08:49:42;;;;;;;10.73;3.85;;;4.30;99.90;;;;;;5103278;28;20189;-70
2021/11/27 08:52:07;;;;;;;8.70;5.18;;;4.30;99.90;;;;;;5083421;28;20991;-69
2021/11/27 08:54:33;;;;;;;8.75;4.80;;;4.60;99.90;;;;;;5102861;28;20408;-68
2021/11/27 08:56:58;;;;;;;8.57;4.90;;;4.90;99.90;;;;;;5102556;28;20416;-69
2021/11/27 08:59:25;;;;;;;9.93;4.97;;;5.10;99.90;;;;;;5101165;28;20987;-68
2021/11/27 09:01:53;;;;;;;10.93;5.93;;;5.20;99.90;;;;;;5100640;28;20416;-69
2021/11/27 09:04:20;;;;;;;9.55;5.60;;;5.40;99.90;;;;;;5069274;28;20408;-70
2021/11/27 09:06:46;;;;;;;13.10;6.00;;;5.50;99.90;;;;;;5101271;28;20498;-69
2021/11/27 09:09:12;;;;;;;11.10;5.23;;;5.50;99.90;;;;;;5104378;28;20491;-68
2021/11/27 09:11:38;;;;;;;9.02;5.35;;;5.60;99.90;;;;;;5102860;28;20911;-69
2021/11/27 09:14:06;;;;;;;10.53;5.50;;;5.60;99.90;;;;;;5104997;28;20821;-67
2021/11/27 09:16:32;;;;;;;11.23;6.30;;;5.60;99.90;;;;;;5101555;28;20424;-68
2021/11/27 09:18:58;;;;;;;12.25;4.43;;;5.60;99.90;;;;;;5105648;28;20197;-71
2021/11/27 09:21:23;;;;;;;7.57;3.70;;;5.30;99.90;;;;;;5104009;28;20220;-69
2021/11/27 09:23:49;;;;;;;6.70;3.65;;;5.00;99.90;;;;;;5103800;28;20200;-69
2021/11/27 09:26:15;;;;;;;7.97;3.47;;;4.90;99.90;;;;;;5103754;28;21905;-70
2021/11/27 09:28:42;;;;;;;10.15;3.08;;;4.80;99.90;;;;;;5087118;28;20200;-69
2021/11/27 09:31:08;;;;;;;6.80;2.40;;;4.70;99.90;;;;;;5105038;28;20265;-71
2021/11/27 09:33:33;;;;;;;6.75;2.67;;;4.70;99.90;;;;;;5085813;28;20193;-71
2021/11/27 09:36:03;;;;;;;5.18;2.90;;;4.70;99.90;;;;;;5103817;28;20196;-71
2021/11/27 09:38:30;;;;;;;7.78;3.03;;;4.70;99.90;;;;;;5103782;28;20262;-71
2021/11/27 09:41:34;;;;;;;5.60;2.80;;;4.70;99.90;;;;;;5103678;28;20213;-71
2021/11/27 09:44:05;;;;;;;9.00;3.15;;;4.70;99.90;;;;;;5084960;28;20237;-69
2021/11/27 09:46:35;;;;;;;3.92;2.58;;;4.70;99.90;;;;;;5103875;28;20551;-70
2021/11/27 09:49:05;;;;;;;6.88;2.88;;;4.80;99.90;;;;;;5104255;28;20230;-70
2021/11/27 09:51:33;;;;;;;6.57;3.30;;;4.70;99.90;;;;;;5101584;28;20196;-71
2021/11/27 09:54:00;;;;;;;10.20;3.75;;;4.80;99.90;;;;;;5101063;28;20586;-71
2021/11/27 09:56:27;;;;;;;6.47;3.50;;;4.80;99.90;;;;;;5098419;28;20213;-70
2021/11/27 09:58:53;;;;;;;7.65;3.70;;;4.80;99.90;;;;;;5104156;28;20260;-70
2021/11/27 10:01:25;;;;;;;14.25;5.13;;;4.80;99.90;;;;;;5101292;28;20283;-71
2021/11/27 10:04:09;;;;;;;6.97;3.58;;;4.90;99.90;;;;;;5103019;28;20270;-69
2021/11/27 10:06:38;;;;;;;13.13;4.03;;;4.80;99.90;;;;;;5102061;28;20199;-70
2021/11/27 10:09:12;;;;;;;10.80;4.32;;;4.80;99.90;;;;;;5103359;28;20185;-68
2021/11/27 10:11:39;;;;;;;7.78;3.92;;;4.80;99.90;;;;;;5102761;28;20196;-69
2021/11/27 10:14:07;;;;;;;16.92;4.25;;;4.80;99.90;;;;;;5099806;28;20208;-69
2021/11/27 10:16:53;;;;;;;7.63;4.22;;;4.70;99.90;;;;;;5106673;28;20218;-68
2021/11/27 10:19:19;;;;;;;12.75;4.55;;;4.80;99.90;;;;;;5102797;28;20184;-69
2021/11/27 10:21:54;;;;;;;4.97;2.75;;;4.70;99.90;;;;;;5104973;27;20681;-69
2021/11/27 10:24:22;;;;;;;7.47;3.83;;;4.70;99.90;;;;;;5086301;28;20697;-69
2021/11/27 10:26:50;;;;;;;7.97;4.40;;;4.70;99.90;;;;;;5109550;28;20630;-69
2021/11/27 10:29:25;;;;;;;6.38;3.70;;;4.60;99.90;;;;;;5105436;28;20233;-70
2021/11/27 10:32:03;;;;;;;12.68;4.03;;;4.60;99.90;;;;;;5109312;28;20192;-69
2021/11/27 10:34:29;;;;;;;11.25;5.65;;;4.60;99.90;;;;;;5109763;28;20195;-68
2021/11/27 10:36:54;;;;;;;14.05;6.05;;;4.60;99.90;;;;;;5091172;28;20185;-69
2021/11/27 10:39:20;;;;;;;14.90;7.35;;;4.60;99.90;;;;;;5103154;28;20211;-69
2021/11/27 10:42:18;;;;;;;14.60;7.75;;;4.60;99.90;;;;;;5107626;28;20235;-69
2021/11/27 10:44:45;;;;;;;16.58;7.97;;;4.70;99.90;;;;;;5096069;28;20246;-69
2021/11/27 10:47:16;;;;;;;16.02;8.88;;;4.70;99.90;;;;;;5109251;28;20189;-70
2021/11/27 10:49:43;;;;;;;18.88;9.23;;;4.70;99.90;;;;;;5101160;28;20190;-70
2021/11/27 10:52:21;;;;;;;20.30;9.23;;;4.70;99.90;;;;;;5107548;28;20193;-70
2021/11/27 10:54:52;;;;;;;19.40;10.43;;;4.70;99.90;;;;;;5107229;28;20257;-71
2021/11/27 10:57:35;;;;;;;17.98;9.82;;;4.80;99.90;;;;;;5109315;28;20812;-70
2021/11/27 11:00:07;;;;;;;17.52;9.40;;;4.80;99.90;;;;;;5108765;28;20192;-71
2021/11/27 11:02:35;;;;;;;17.73;8.88;;;4.80;99.90;;;;;;5088808;28;20289;-69
2021/11/27 11:05:14;;;;;;;22.38;8.68;;;4.80;99.90;;;;;;5109884;28;20185;-71
2021/11/27 11:07:51;;;;;;;13.93;7.47;;;4.80;99.90;;;;;;5108625;28;20847;-70
2021/11/27 11:10:22;;;;;;;14.40;7.57;;;4.80;99.90;;;;;;5109595;28;20207;-70
2021/11/27 11:12:52;;;;;;;19.13;6.68;;;4.80;99.90;;;;;;5101183;28;20193;-71
2021/11/27 11:15:24;;;;;;;14.48;6.50;;;4.80;99.90;;;;;;5107534;28;20284;-69
2021/11/27 11:18:08;;;;;;;8.18;4.22;;;4.80;99.90;;;;;;5103587;28;20197;-70
2021/11/27 11:20:34;;;;;;;9.68;3.55;;;4.80;99.90;;;;;;5109545;28;20200;-70
2021/11/27 11:23:17;;;;;;;9.38;2.90;;;4.80;99.90;;;;;;5105005;28;20193;-71
2021/11/27 11:26:23;;;;;;;9.23;2.83;;;4.90;99.90;;;;;;5091030;28;20241;-71
2021/11/27 11:28:55;;;;;;;3.72;1.88;;;4.80;99.90;;;;;;5024375;28;20684;-70
2021/11/27 11:31:47;;;;;;;6.22;1.70;;;4.80;99.90;;;;;;5024752;28;20196;-70
2021/11/27 11:34:12;;;;;;;6.90;1.67;;;4.80;99.90;;;;;;5077650;28;20196;-70
2021/11/27 11:36:38;;;;;;;4.10;1.50;;;4.80;99.90;;;;;;5101409;28;20213;-70
2021/11/27 11:39:04;;;;;;;5.25;1.83;;;4.70;99.90;;;;;;5096676;28;20189;-70
2021/11/27 11:41:32;;;;;;;8.73;2.63;;;4.70;99.90;;;;;;5095141;28;20296;-70
2021/11/27 11:43:57;;;;;;;9.43;2.08;;;4.70;99.90;;;;;;5105543;28;20628;-70
2021/11/27 11:46:24;;;;;;;6.38;1.92;;;4.70;99.90;;;;;;5101057;28;20185;-71
2021/11/27 11:48:52;;;;;;;8.25;2.20;;;4.70;99.90;;;;;;5103398;28;20189;-70
2021/11/27 11:51:35;;;;;;;6.95;2.35;;;4.70;99.90;;;;;;5101439;28;20220;-70
2021/11/27 11:54:02;;;;;;;6.05;1.50;;;4.70;99.90;;;;;;5103830;28;20669;-70
2021/11/27 11:56:34;;;;;;;3.65;1.60;;;4.70;99.90;;;;;;5107767;28;20547;-69
2021/11/27 11:59:20;;;;;;;5.88;1.55;;;4.70;99.90;;;;;;5095165;28;20189;-69
2021/11/27 12:02:08;;;;;;;5.10;1.30;;;4.80;99.90;;;;;;5108691;28;20647;-70
2021/11/27 12:04:34;;;;;;;8.45;1.85;;;4.80;99.90;;;;;;5094867;28;20205;-70
2021/11/27 12:07:08;;;;;;;4.93;0.73;;;4.80;99.90;;;;;;5090209;28;20185;-70
2021/11/27 12:09:34;;;;;;;5.80;1.52;;;4.80;99.90;;;;;;5103847;28;20185;-70
2021/11/27 12:12:02;;;;;;;2.20;0.70;;;4.80;99.90;;;;;;5099742;27;20250;-69
2021/11/27 12:14:29;;;;;;;2.40;0.77;;;4.80;99.90;;;;;;5104768;27;20218;-69
2021/11/27 12:17:04;;;;;;;10.48;0.90;;;4.90;99.90;;;;;;5095324;27;20177;-70
2021/11/27 12:19:38;;;;;;;7.70;0.88;;;4.90;99.90;;;;;;5101526;27;20190;-69
2021/11/27 12:22:22;;;;;;;4.65;1.00;;;4.90;99.90;;;;;;5099743;27;20217;-70
2021/11/27 12:25:14;;;;;;;3.13;0.85;;;4.90;99.90;;;;;;5099755;28;20188;-70
2021/11/27 12:28:08;;;;;;;7.88;0.60;;;4.90;99.90;;;;;;5099222;28;20240;-69
2021/11/27 12:30:41;;;;;;;1.30;0.47;;;4.90;99.90;;;;;;5105463;27;20626;-68
2021/11/27 12:33:07;;;;;;;6.25;0.63;;;4.90;99.90;;;;;;5085763;28;20208;-69
2021/11/27 12:35:32;;;;;;;3.97;0.70;;;4.90;99.90;;;;;;5105971;28;20177;-69
2021/11/27 12:38:07;;;;;;;4.30;0.70;;;4.90;99.90;;;;;;5103374;27;20650;-68
2021/11/27 12:40:37;;;;;;;1.60;0.63;;;4.90;99.90;;;;;;5101503;27;20184;-70
2021/11/27 12:43:11;;;;;;;8.00;1.23;;;4.90;99.90;;;;;;5101208;27;20630;-68
2021/11/27 12:45:39;;;;;;;12.35;2.55;;;4.90;99.90;;;;;;5100992;27;20186;-66
2021/11/27 12:48:29;;;;;;;8.93;2.30;;;4.90;99.90;;;;;;5097710;27;20177;-67
2021/11/27 12:51:17;;;;;;;6.15;1.92;;;4.90;99.90;;;;;;5102214;28;20201;-66
2021/11/27 12:54:01;;;;;;;6.32;2.10;;;4.90;99.90;;;;;;5101368;28;20918;-67
2021/11/27 12:56:47;;;;;;;5.85;2.10;;;4.90;99.90;;;;;;5098403;28;21250;-67
2021/11/27 12:59:21;;;;;;;5.45;2.42;;;4.90;99.90;;;;;;5103390;28;20193;-66
2021/11/27 13:01:47;;;;;;;5.80;2.50;;;4.90;99.90;;;;;;5097778;28;20295;-68
2021/11/27 13:04:14;;;;;;;8.82;2.67;;;4.90;99.90;;;;;;5102238;28;20681;-67
2021/11/27 13:06:40;;;;;;;10.55;2.40;;;4.90;99.90;;;;;;5101670;28;20269;-66
2021/11/27 13:09:13;;;;;;;11.68;2.67;;;4.80;99.90;;;;;;5081379;28;20272;-66